sensor_id;sensor_type;location;lat;lon;timestamp;P1;durP1;ratioP1;P2;durP2;ratioP2
21517;SDS011;61765;45.794;24.150;2023-04-25T00:06:28;21.98;;;15.90;;
21517;SDS011;61765;45.794;24.150;2023-04-25T00:14:36;18.48;;;14.13;;
21517;SDS011;61765;45.794;24.150;2023-04-25T00:22:42;22.05;;;16.85;;
21517;SDS011;61765;45.794;24.150;2023-04-25T00:30:50;18.83;;;15.77;;
21517;SDS011;61765;45.794;24.150;2023-04-25T00:38:55;20.23;;;16.77;;
21517;SDS011;61765;45.794;24.150;2023-04-25T00:47:05;21.35;;;16.85;;
21517;SDS011;61765;45.794;24.150;2023-04-25T00:55:11;17.33;;;15.38;;
21517;SDS011;61765;45.794;24.150;2023-04-25T01:03:20;14.18;;;11.73;;
21517;SDS011;61765;45.794;24.150;2023-04-25T01:11:26;14.05;;;12.18;;
21517;SDS011;61765;45.794;24.150;2023-04-25T01:19:37;11.65;;;10.10;;
21517;SDS011;61765;45.794;24.150;2023-04-25T01:27:45;11.93;;;9.20;;
21517;SDS011;61765;45.794;24.150;2023-04-25T01:35:51;11.52;;;8.98;;
21517;SDS011;61765;45.794;24.150;2023-04-25T01:43:59;11.15;;;9.02;;
21517;SDS011;61765;45.794;24.150;2023-04-25T01:52:05;12.57;;;9.98;;
21517;SDS011;61765;45.794;24.150;2023-04-25T02:00:16;11.77;;;9.10;;
21517;SDS011;61765;45.794;24.150;2023-04-25T02:08:31;11.57;;;10.18;;
21517;SDS011;61765;45.794;24.150;2023-04-25T02:16:41;10.18;;;8.30;;
21517;SDS011;61765;45.794;24.150;2023-04-25T02:24:48;10.65;;;8.70;;
21517;SDS011;61765;45.794;24.150;2023-04-25T02:32:57;9.85;;;8.18;;
21517;SDS011;61765;45.794;24.150;2023-04-25T02:41:03;12.25;;;10.40;;
21517;SDS011;61765;45.794;24.150;2023-04-25T02:49:11;15.27;;;10.30;;
21517;SDS011;61765;45.794;24.150;2023-04-25T02:57:18;12.68;;;10.45;;
21517;SDS011;61765;45.794;24.150;2023-04-25T03:05:26;13.65;;;10.38;;
21517;SDS011;61765;45.794;24.150;2023-04-25T03:13:33;14.80;;;11.65;;
21517;SDS011;61765;45.794;24.150;2023-04-25T03:21:42;14.32;;;11.20;;
21517;SDS011;61765;45.794;24.150;2023-04-25T03:29:47;11.80;;;10.00;;
21517;SDS011;61765;45.794;24.150;2023-04-25T03:37:56;14.02;;;11.25;;
21517;SDS011;61765;45.794;24.150;2023-04-25T03:46:06;13.97;;;10.07;;
21517;SDS011;61765;45.794;24.150;2023-04-25T03:54:15;14.07;;;12.15;;
21517;SDS011;61765;45.794;24.150;2023-04-25T04:02:31;14.48;;;12.45;;
21517;SDS011;61765;45.794;24.150;2023-04-25T04:10:42;17.40;;;12.48;;
21517;SDS011;61765;45.794;24.150;2023-04-25T04:18:48;14.30;;;12.43;;
21517;SDS011;61765;45.794;24.150;2023-04-25T04:26:57;18.63;;;12.60;;
21517;SDS011;61765;45.794;24.150;2023-04-25T04:35:08;18.97;;;12.83;;
21517;SDS011;61765;45.794;24.150;2023-04-25T04:43:17;18.00;;;13.95;;
21517;SDS011;61765;45.794;24.150;2023-04-25T04:51:42;23.10;;;14.80;;
21517;SDS011;61765;45.794;24.150;2023-04-25T05:00:16;18.02;;;12.95;;
21517;SDS011;61765;45.794;24.150;2023-04-25T05:08:41;22.35;;;14.65;;
21517;SDS011;61765;45.794;24.150;2023-04-25T05:16:55;22.50;;;14.32;;
21517;SDS011;61765;45.794;24.150;2023-04-25T05:25:13;19.85;;;13.80;;
21517;SDS011;61765;45.794;24.150;2023-04-25T05:33:41;17.08;;;11.98;;
21517;SDS011;61765;45.794;24.150;2023-04-25T05:41:48;21.33;;;11.02;;
21517;SDS011;61765;45.794;24.150;2023-04-25T05:50:23;11.40;;;8.65;;
21517;SDS011;61765;45.794;24.150;2023-04-25T05:58:38;11.75;;;9.38;;
21517;SDS011;61765;45.794;24.150;2023-04-25T06:06:48;11.00;;;8.77;;
21517;SDS011;61765;45.794;24.150;2023-04-25T06:14:54;12.25;;;10.27;;
21517;SDS011;61765;45.794;24.150;2023-04-25T06:23:29;14.00;;;10.93;;
21517;SDS011;61765;45.794;24.150;2023-04-25T06:31:38;13.18;;;10.02;;
21517;SDS011;61765;45.794;24.150;2023-04-25T06:39:47;10.13;;;8.10;;
21517;SDS011;61765;45.794;24.150;2023-04-25T06:47:52;13.02;;;10.18;;
21517;SDS011;61765;45.794;24.150;2023-04-25T06:56:01;13.10;;;8.48;;
21517;SDS011;61765;45.794;24.150;2023-04-25T07:04:19;7.22;;;5.93;;
21517;SDS011;61765;45.794;24.150;2023-04-25T07:12:32;9.27;;;5.47;;
21517;SDS011;61765;45.794;24.150;2023-04-25T07:20:38;7.63;;;6.82;;
21517;SDS011;61765;45.794;24.150;2023-04-25T07:28:47;7.35;;;5.32;;
21517;SDS011;61765;45.794;24.150;2023-04-25T07:36:53;13.30;;;7.88;;
21517;SDS011;61765;45.794;24.150;2023-04-25T07:45:04;7.93;;;5.32;;
21517;SDS011;61765;45.794;24.150;2023-04-25T07:53:13;5.97;;;4.22;;
21517;SDS011;61765;45.794;24.150;2023-04-25T08:01:30;5.15;;;4.25;;
21517;SDS011;61765;45.794;24.150;2023-04-25T08:09:38;6.45;;;4.32;;
21517;SDS011;61765;45.794;24.150;2023-04-25T08:17:53;8.93;;;4.70;;
21517;SDS011;61765;45.794;24.150;2023-04-25T08:25:59;5.80;;;4.43;;
21517;SDS011;61765;45.794;24.150;2023-04-25T08:34:13;4.05;;;3.50;;
21517;SDS011;61765;45.794;24.150;2023-04-25T08:42:23;5.50;;;4.70;;
21517;SDS011;61765;45.794;24.150;2023-04-25T08:50:35;5.90;;;4.80;;
21517;SDS011;61765;45.794;24.150;2023-04-25T08:58:41;6.47;;;4.32;;
21517;SDS011;61765;45.794;24.150;2023-04-25T09:06:50;5.78;;;4.00;;
21517;SDS011;61765;45.794;24.150;2023-04-25T09:15:06;5.95;;;4.57;;
21517;SDS011;61765;45.794;24.150;2023-04-25T09:23:46;5.43;;;4.65;;
21517;SDS011;61765;45.794;24.150;2023-04-25T09:31:59;4.63;;;3.67;;
21517;SDS011;61765;45.794;24.150;2023-04-25T09:40:20;4.47;;;4.07;;
21517;SDS011;61765;45.794;24.150;2023-04-25T09:48:34;6.10;;;4.32;;
21517;SDS011;61765;45.794;24.150;2023-04-25T09:56:43;3.70;;;3.40;;
21517;SDS011;61765;45.794;24.150;2023-04-25T10:13:12;3.85;;;3.25;;
21517;SDS011;61765;45.794;24.150;2023-04-25T10:21:18;3.78;;;3.30;;
21517;SDS011;61765;45.794;24.150;2023-04-25T10:38:16;5.82;;;2.53;;
21517;SDS011;61765;45.794;24.150;2023-04-25T11:31:18;3.70;;;2.05;;
21517;SDS011;61765;45.794;24.150;2023-04-25T11:40:08;2.97;;;1.60;;
21517;SDS011;61765;45.794;24.150;2023-04-25T12:06:23;3.88;;;1.83;;
21517;SDS011;61765;45.794;24.150;2023-04-25T12:33:09;4.68;;;3.67;;
21517;SDS011;61765;45.794;24.150;2023-04-25T14:01:16;4.03;;;1.80;;
21517;SDS011;61765;45.794;24.150;2023-04-25T15:57:40;1.65;;;1.00;;
21517;SDS011;61765;45.794;24.150;2023-04-25T16:05:45;2.17;;;1.52;;
21517;SDS011;61765;45.794;24.150;2023-04-25T16:13:54;4.50;;;2.30;;
21517;SDS011;61765;45.794;24.150;2023-04-25T16:21:59;3.97;;;1.65;;
21517;SDS011;61765;45.794;24.150;2023-04-25T16:30:13;2.95;;;1.30;;
21517;SDS011;61765;45.794;24.150;2023-04-25T16:38:19;2.13;;;1.23;;
21517;SDS011;61765;45.794;24.150;2023-04-25T16:46:27;2.83;;;1.70;;
21517;SDS011;61765;45.794;24.150;2023-04-25T16:54:33;2.88;;;1.40;;
21517;SDS011;61765;45.794;24.150;2023-04-25T17:02:41;1.10;;;0.93;;
21517;SDS011;61765;45.794;24.150;2023-04-25T17:10:56;1.48;;;1.00;;
21517;SDS011;61765;45.794;24.150;2023-04-25T17:19:06;2.50;;;1.40;;
21517;SDS011;61765;45.794;24.150;2023-04-25T17:27:23;2.60;;;1.08;;
21517;SDS011;61765;45.794;24.150;2023-04-25T17:35:31;2.35;;;1.38;;
21517;SDS011;61765;45.794;24.150;2023-04-25T17:43:37;11.45;;;1.73;;
21517;SDS011;61765;45.794;24.150;2023-04-25T17:51:45;1.60;;;0.98;;
21517;SDS011;61765;45.794;24.150;2023-04-25T17:59:51;2.63;;;1.85;;
21517;SDS011;61765;45.794;24.150;2023-04-25T18:08:00;2.55;;;1.98;;
21517;SDS011;61765;45.794;24.150;2023-04-25T18:16:07;3.35;;;1.60;;
21517;SDS011;61765;45.794;24.150;2023-04-25T18:24:25;1.45;;;1.02;;
21517;SDS011;61765;45.794;24.150;2023-04-25T18:32:31;2.22;;;1.08;;
21517;SDS011;61765;45.794;24.150;2023-04-25T18:40:39;5.35;;;1.60;;
21517;SDS011;61765;45.794;24.150;2023-04-25T18:49:03;3.55;;;1.85;;
21517;SDS011;61765;45.794;24.150;2023-04-25T18:57:15;4.18;;;1.70;;
21517;SDS011;61765;45.794;24.150;2023-04-25T19:05:20;3.58;;;1.52;;
21517;SDS011;61765;45.794;24.150;2023-04-25T19:13:29;4.35;;;1.50;;
21517;SDS011;61765;45.794;24.150;2023-04-25T19:21:38;1.52;;;1.00;;
21517;SDS011;61765;45.794;24.150;2023-04-25T19:29:46;1.58;;;1.38;;
21517;SDS011;61765;45.794;24.150;2023-04-25T19:37:58;1.02;;;0.90;;
21517;SDS011;61765;45.794;24.150;2023-04-25T19:46:07;1.27;;;1.00;;
21517;SDS011;61765;45.794;24.150;2023-04-25T19:54:12;1.42;;;1.20;;
21517;SDS011;61765;45.794;24.150;2023-04-25T20:02:21;2.53;;;1.50;;
21517;SDS011;61765;45.794;24.150;2023-04-25T20:10:27;1.60;;;1.17;;
21517;SDS011;61765;45.794;24.150;2023-04-25T20:18:35;2.97;;;1.70;;
21517;SDS011;61765;45.794;24.150;2023-04-25T20:26:40;0.93;;;0.88;;
21517;SDS011;61765;45.794;24.150;2023-04-25T20:34:49;2.13;;;1.70;;
21517;SDS011;61765;45.794;24.150;2023-04-25T20:42:57;2.35;;;1.52;;
21517;SDS011;61765;45.794;24.150;2023-04-25T20:51:06;1.88;;;1.60;;
21517;SDS011;61765;45.794;24.150;2023-04-25T20:59:12;2.35;;;1.92;;
21517;SDS011;61765;45.794;24.150;2023-04-25T21:07:21;2.78;;;2.40;;
21517;SDS011;61765;45.794;24.150;2023-04-25T21:15:30;3.33;;;2.28;;
21517;SDS011;61765;45.794;24.150;2023-04-25T21:23:38;3.90;;;2.72;;
21517;SDS011;61765;45.794;24.150;2023-04-25T21:31:45;4.43;;;3.28;;
21517;SDS011;61765;45.794;24.150;2023-04-25T21:39:54;2.85;;;2.30;;
21517;SDS011;61765;45.794;24.150;2023-04-25T21:47:59;2.25;;;1.73;;
21517;SDS011;61765;45.794;24.150;2023-04-25T21:56:08;2.47;;;2.13;;
21517;SDS011;61765;45.794;24.150;2023-04-25T22:04:14;4.72;;;4.22;;
21517;SDS011;61765;45.794;24.150;2023-04-25T22:12:22;4.30;;;2.50;;
21517;SDS011;61765;45.794;24.150;2023-04-25T22:20:28;3.83;;;2.92;;
21517;SDS011;61765;45.794;24.150;2023-04-25T22:28:36;5.57;;;4.28;;
21517;SDS011;61765;45.794;24.150;2023-04-25T22:36:43;5.20;;;3.53;;
21517;SDS011;61765;45.794;24.150;2023-04-25T22:44:51;5.72;;;3.80;;
21517;SDS011;61765;45.794;24.150;2023-04-25T22:52:57;2.83;;;2.00;;
21517;SDS011;61765;45.794;24.150;2023-04-25T23:01:07;3.17;;;1.77;;
21517;SDS011;61765;45.794;24.150;2023-04-25T23:09:13;1.42;;;1.10;;
21517;SDS011;61765;45.794;24.150;2023-04-25T23:17:21;3.90;;;1.08;;
21517;SDS011;61765;45.794;24.150;2023-04-25T23:25:28;1.75;;;0.77;;
21517;SDS011;61765;45.794;24.150;2023-04-25T23:33:37;1.35;;;0.73;;
21517;SDS011;61765;45.794;24.150;2023-04-25T23:41:44;0.52;;;0.50;;
21517;SDS011;61765;45.794;24.150;2023-04-25T23:49:52;1.02;;;0.40;;
21517;SDS011;61765;45.794;24.150;2023-04-25T23:57:59;0.75;;;0.30;;
